Time;durP1;ratioP1;P1;durP2;ratioP2;P2;SDS_P1;SDS_P2;PMS_P1;PMS_P2;Temp;Humidity;BMP_temperature;BMP_pressure;BME280_temperature;BME280_humidity;BME280_pressure;Samples;Min_cycle;Max_cycle;Signal;HPM_P1;HPM_P2
2023/10/25 00:00:51;;;;;;;1.6;1;;;;;;;;;;;;;
2023/10/25 00:03:21;;;;;;;1.4;1.2;;;;;;;;;;;;;
2023/10/25 00:05:45;;;;;;;1.2;1.1;;;;;;;;;;;;;
2023/10/25 00:08:11;;;;;;;2;1.4;;;;;;;;;;;;;
2023/10/25 00:10:36;;;;;;;1.3;1.2;;;;;;;;;;;;;
2023/10/25 00:13:01;;;;;;;1.5;1;;;;;;;;;;;;;
2023/10/25 00:15:31;;;;;;;1.2;1.1;;;;;;;;;;;;;
2023/10/25 00:17:54;;;;;;;1.1;0.8;;;;;;;;;;;;;
2023/10/25 00:20:20;;;;;;;1;0.9;;;;;;;;;;;;;
2023/10/25 00:22:45;;;;;;;0.8;0.8;;;;;;;;;;;;;
2023/10/25 00:25:14;;;;;;;1;0.9;;;;;;;;;;;;;
2023/10/25 00:27:39;;;;;;;1.1;0.8;;;;;;;;;;;;;
2023/10/25 00:30:05;;;;;;;0.8;0.8;;;;;;;;;;;;;
2023/10/25 00:32:30;;;;;;;1;0.8;;;;;;;;;;;;;
2023/10/25 00:35:00;;;;;;;0.5;0.5;;;;;;;;;;;;;
2023/10/25 00:37:28;;;;;;;0.4;0.4;;;;;;;;;;;;;
2023/10/25 00:39:56;;;;;;;0.7;0.7;;;;;;;;;;;;;
2023/10/25 00:42:18;;;;;;;0.5;0.5;;;;;;;;;;;;;
2023/10/25 00:44:45;;;;;;;0.7;0.7;;;;;;;;;;;;;
2023/10/25 00:47:10;;;;;;;0.6;0.6;;;;;;;;;;;;;
2023/10/25 00:49:37;;;;;;;0.6;0.6;;;;;;;;;;;;;
2023/10/25 00:52:02;;;;;;;0.5;0.5;;;;;;;;;;;;;
2023/10/25 00:54:27;;;;;;;0.9;0.6;;;;;;;;;;;;;
2023/10/25 00:56:53;;;;;;;0.5;0.5;;;;;;;;;;;;;
2023/10/25 00:59:17;;;;;;;0.6;0.4;;;;;;;;;;;;;
2023/10/25 01:01:42;;;;;;;0.4;0.4;;;;;;;;;;;;;
2023/10/25 01:04:10;;;;;;;0.8;0.4;;;;;;;;;;;;;
2023/10/25 01:06:35;;;;;;;0.5;0.4;;;;;;;;;;;;;
2023/10/25 01:09:01;;;;;;;0.4;0.4;;;;;;;;;;;;;
2023/10/25 01:11:25;;;;;;;0.3;0.3;;;;;;;;;;;;;
2023/10/25 01:13:53;;;;;;;0.3;0.3;;;;;;;;;;;;;
2023/10/25 01:16:17;;;;;;;1.2;0.5;;;;;;;;;;;;;
2023/10/25 01:18:43;;;;;;;0.4;0.4;;;;;;;;;;;;;
2023/10/25 01:21:08;;;;;;;0.5;0.5;;;;;;;;;;;;;
2023/10/25 01:23:37;;;;;;;0.5;0.5;;;;;;;;;;;;;
2023/10/25 01:26:02;;;;;;;0.8;0.7;;;;;;;;;;;;;
2023/10/25 01:28:28;;;;;;;0.6;0.6;;;;;;;;;;;;;
2023/10/25 01:30:54;;;;;;;1;0.5;;;;;;;;;;;;;
2023/10/25 01:33:19;;;;;;;2;1;;;;;;;;;;;;;
2023/10/25 01:35:44;;;;;;;0.5;0.5;;;;;;;;;;;;;
2023/10/25 01:38:10;;;;;;;0.9;0.8;;;;;;;;;;;;;
2023/10/25 01:40:35;;;;;;;0.7;0.7;;;;;;;;;;;;;
2023/10/25 01:43:03;;;;;;;0.7;0.7;;;;;;;;;;;;;
2023/10/25 01:45:30;;;;;;;1.6;0.9;;;;;;;;;;;;;
2023/10/25 01:47:57;;;;;;;0.9;0.9;;;;;;;;;;;;;
2023/10/25 01:50:23;;;;;;;0.9;0.9;;;;;;;;;;;;;
2023/10/25 01:52:49;;;;;;;0.6;0.6;;;;;;;;;;;;;
2023/10/25 01:55:14;;;;;;;1;1;;;;;;;;;;;;;
2023/10/25 01:57:41;;;;;;;1.1;1;;;;;;;;;;;;;
2023/10/25 02:00:07;;;;;;;1;1;;;;;;;;;;;;;
2023/10/25 02:02:34;;;;;;;1.1;0.9;;;;;;;;;;;;;
2023/10/25 02:04:59;;;;;;;0.8;0.8;;;;;;;;;;;;;
2023/10/25 02:07:24;;;;;;;0.7;0.7;;;;;;;;;;;;;
2023/10/25 02:09:49;;;;;;;0.7;0.7;;;;;;;;;;;;;
2023/10/25 02:12:14;;;;;;;1.3;0.8;;;;;;;;;;;;;
2023/10/25 02:14:40;;;;;;;0.7;0.7;;;;;;;;;;;;;
2023/10/25 02:17:06;;;;;;;0.6;0.6;;;;;;;;;;;;;
2023/10/25 02:19:31;;;;;;;2.2;1.1;;;;;;;;;;;;;
2023/10/25 02:21:56;;;;;;;1;0.9;;;;;;;;;;;;;
2023/10/25 02:24:22;;;;;;;1;1;;;;;;;;;;;;;
2023/10/25 02:26:47;;;;;;;1;0.9;;;;;;;;;;;;;
2023/10/25 02:29:14;;;;;;;1.3;0.7;;;;;;;;;;;;;
2023/10/25 02:31:39;;;;;;;1.1;0.9;;;;;;;;;;;;;
2023/10/25 02:34:06;;;;;;;1.3;0.9;;;;;;;;;;;;;
2023/10/25 02:36:32;;;;;;;1;0.9;;;;;;;;;;;;;
2023/10/25 02:38:57;;;;;;;1.2;1;;;;;;;;;;;;;
2023/10/25 02:41:22;;;;;;;1.5;1.4;;;;;;;;;;;;;
2023/10/25 02:43:50;;;;;;;1.4;1.1;;;;;;;;;;;;;
2023/10/25 02:46:14;;;;;;;1.3;1.2;;;;;;;;;;;;;
2023/10/25 02:48:40;;;;;;;1.5;1.4;;;;;;;;;;;;;
2023/10/25 02:51:06;;;;;;;1.6;1.5;;;;;;;;;;;;;
2023/10/25 02:53:31;;;;;;;1.3;1.2;;;;;;;;;;;;;
2023/10/25 02:55:56;;;;;;;1.2;1.1;;;;;;;;;;;;;
2023/10/25 02:58:23;;;;;;;1.2;1.1;;;;;;;;;;;;;
2023/10/25 03:00:48;;;;;;;1.1;1;;;;;;;;;;;;;
2023/10/25 03:03:15;;;;;;;1.2;1.1;;;;;;;;;;;;;
2023/10/25 03:05:40;;;;;;;1.1;1;;;;;;;;;;;;;
2023/10/25 03:08:06;;;;;;;1.7;1.1;;;;;;;;;;;;;
2023/10/25 03:10:30;;;;;;;0.9;0.9;;;;;;;;;;;;;
2023/10/25 03:12:56;;;;;;;0.8;0.8;;;;;;;;;;;;;
2023/10/25 03:15:22;;;;;;;0.7;0.7;;;;;;;;;;;;;
2023/10/25 03:17:50;;;;;;;0.9;0.6;;;;;;;;;;;;;
2023/10/25 03:20:15;;;;;;;0.9;0.8;;;;;;;;;;;;;
2023/10/25 03:22:40;;;;;;;0.8;0.8;;;;;;;;;;;;;
2023/10/25 03:25:05;;;;;;;0.8;0.8;;;;;;;;;;;;;
2023/10/25 03:27:33;;;;;;;0.7;0.7;;;;;;;;;;;;;
2023/10/25 03:29:57;;;;;;;1;0.9;;;;;;;;;;;;;
2023/10/25 03:32:25;;;;;;;1.2;0.8;;;;;;;;;;;;;
2023/10/25 03:34:50;;;;;;;0.7;0.7;;;;;;;;;;;;;
2023/10/25 03:37:15;;;;;;;0.7;0.7;;;;;;;;;;;;;
2023/10/25 03:39:40;;;;;;;0.9;0.9;;;;;;;;;;;;;
2023/10/25 03:42:07;;;;;;;0.7;0.7;;;;;;;;;;;;;
2023/10/25 03:44:32;;;;;;;0.8;0.8;;;;;;;;;;;;;
2023/10/25 03:47:03;;;;;;;0.8;0.8;;;;;;;;;;;;;
2023/10/25 03:49:26;;;;;;;0.8;0.8;;;;;;;;;;;;;
2023/10/25 03:51:54;;;;;;;0.9;0.9;;;;;;;;;;;;;
2023/10/25 03:54:19;;;;;;;0.9;0.9;;;;;;;;;;;;;
2023/10/25 03:56:45;;;;;;;1.2;0.8;;;;;;;;;;;;;
2023/10/25 03:59:11;;;;;;;0.7;0.7;;;;;;;;;;;;;
2023/10/25 04:02:40;;;;;;;1.5;1;;;;;;;11.89;96.89551;927.3223;;;;
2023/10/25 04:05:04;;;;;;;1.2;1.1;;;;;;;11.91;96.94531;927.2574;;;;
2023/10/25 04:07:29;;;;;;;0.9;0.9;;;;;;;11.81;97.05078;927.1542;;;;
2023/10/25 04:10:04;;;;;;;1.2;1;;;;;;;11.75;97.23145;927.0684;;;;
2023/10/25 04:12:30;;;;;;;0.8;0.8;;;;;;;11.77;97.20117;927.0545;;;;
2023/10/25 04:14:55;;;;;;;0.8;0.8;;;;;;;11.78;96.91699;927.0226;;;;
2023/10/25 04:17:20;;;;;;;1.4;1.3;;;;;;;11.72;96.9043;927.064;;;;
2023/10/25 04:19:45;;;;;;;1.5;1.1;;;;;;;11.78;96.43555;927.0106;;;;
2023/10/25 04:22:13;;;;;;;0.8;0.8;;;;;;;11.83;96.02441;927.0233;;;;
2023/10/25 04:24:36;;;;;;;0.8;0.8;;;;;;;11.8;95.68457;927.0178;;;;
2023/10/25 04:27:06;;;;;;;1.3;1.2;;;;;;;11.72;96.65234;927.0711;;;;
2023/10/25 04:29:35;;;;;;;1.4;1.3;;;;;;;11.71;97.32422;926.9805;;;;
2023/10/25 04:32:00;;;;;;;1.3;1.2;;;;;;;11.66;97.73535;926.9636;;;;
2023/10/25 04:34:30;;;;;;;1.4;1.1;;;;;;;11.6;98.26172;926.8508;;;;
2023/10/25 04:36:56;;;;;;;1.2;1.1;;;;;;;11.61;98.57227;926.9328;;;;
2023/10/25 04:39:21;;;;;;;1.2;1.1;;;;;;;11.61;98.57031;926.9328;;;;
2023/10/25 04:41:46;;;;;;;1;1;;;;;;;11.5;98.99414;926.9645;;;;
2023/10/25 04:44:15;;;;;;;1.6;1.5;;;;;;;11.47;99.27441;926.8484;;;;
2023/10/25 04:46:41;;;;;;;1.3;1.2;;;;;;;11.41;98.98535;926.8322;;;;
2023/10/25 04:49:06;;;;;;;1.5;1.2;;;;;;;11.4;98.39941;926.8784;;;;
2023/10/25 04:51:33;;;;;;;1.5;1.4;;;;;;;11.55;98.02246;926.9033;;;;
2023/10/25 04:53:58;;;;;;;1.5;1.4;;;;;;;11.48;98.80664;926.9025;;;;
2023/10/25 04:56:28;;;;;;;1.5;1.4;;;;;;;11.55;98.86914;926.8515;;;;
2023/10/25 04:58:53;;;;;;;2.3;2.2;;;;;;;11.64;98.45313;926.9041;;;;
2023/10/25 05:01:23;;;;;;;1.3;1.3;;;;;;;11.63;98.42773;926.8969;;;;
2023/10/25 05:03:48;;;;;;;1.4;1.3;;;;;;;11.58;98.69238;926.8702;;;;
2023/10/25 05:06:17;;;;;;;1.4;1.3;;;;;;;11.53;99.37793;926.7792;;;;
2023/10/25 05:08:45;;;;;;;1.8;1.3;;;;;;;11.52;99.52441;926.7451;;;;
2023/10/25 05:11:10;;;;;;;1.1;1;;;;;;;11.49;99.39453;926.684;;;;
2023/10/25 05:13:37;;;;;;;1.7;1.1;;;;;;;11.3;100;926.5889;;;;
2023/10/25 05:16:04;;;;;;;1.1;1.1;;;;;;;11.27;100;926.5765;;;;
2023/10/25 05:18:33;;;;;;;1.2;0.9;;;;;;;11.24;100;926.4972;;;;
2023/10/25 05:20:58;;;;;;;0.7;0.7;;;;;;;11.27;100;926.4967;;;;
2023/10/25 05:23:24;;;;;;;1.1;1;;;;;;;11.04;100;926.4714;;;;
2023/10/25 05:25:49;;;;;;;0.9;0.9;;;;;;;11.06;100;926.5006;;;;
2023/10/25 05:28:14;;;;;;;0.8;0.8;;;;;;;11.03;100;926.5234;;;;
2023/10/25 05:30:44;;;;;;;1;0.9;;;;;;;10.91;100;926.502;;;;
2023/10/25 05:33:09;;;;;;;1.1;1.1;;;;;;;11.09;100;926.4556;;;;
2023/10/25 05:35:34;;;;;;;1;1;;;;;;;11.08;100;926.4144;;;;
2023/10/25 05:37:59;;;;;;;0.9;0.9;;;;;;;11.12;100;926.3653;;;;
2023/10/25 05:40:24;;;;;;;0.7;0.7;;;;;;;11.18;100;926.3551;;;;
2023/10/25 05:42:49;;;;;;;1.2;0.9;;;;;;;11.23;100;926.4009;;;;
2023/10/25 05:45:16;;;;;;;0.9;0.9;;;;;;;11.29;99.14063;926.4432;;;;
2023/10/25 05:47:45;;;;;;;1.3;1.2;;;;;;;11.32;99.51367;926.3934;;;;
2023/10/25 05:50:17;;;;;;;2;0.8;;;;;;;11.34;98.70703;926.3572;;;;
2023/10/25 05:52:45;;;;;;;1.1;0.8;;;;;;;11.22;99.85645;926.3875;;;;
2023/10/25 05:55:10;;;;;;;0.7;0.7;;;;;;;11.28;99.6748;926.4196;;;;
2023/10/25 05:57:35;;;;;;;1.2;0.6;;;;;;;11.25;99.13281;926.4827;;;;
2023/10/25 06:00:03;;;;;;;0.8;0.6;;;;;;;11.27;99.56055;926.4219;;;;
2023/10/25 06:02:28;;;;;;;0.6;0.6;;;;;;;11.24;99.11914;926.4334;;;;
2023/10/25 06:05:00;;;;;;;0.6;0.6;;;;;;;11.23;98.97754;926.3922;;;;
2023/10/25 06:07:25;;;;;;;0.8;0.7;;;;;;;11.18;99.19434;926.2523;;;;
2023/10/25 06:09:51;;;;;;;0.6;0.6;;;;;;;11.16;99.01855;926.2286;;;;
2023/10/25 06:12:17;;;;;;;1.1;1;;;;;;;11.1;98.48926;926.1569;;;;
2023/10/25 06:14:45;;;;;;;0.9;0.9;;;;;;;10.94;99.32324;926.2214;;;;
2023/10/25 06:17:10;;;;;;;1;0.8;;;;;;;10.85;99.57715;926.2662;;;;
2023/10/25 06:19:38;;;;;;;1.3;1.1;;;;;;;10.92;99.36523;926.2997;;;;
2023/10/25 06:22:03;;;;;;;2.9;2;;;;;;;10.92;99.37402;926.4048;;;;
2023/10/25 06:24:30;;;;;;;1.6;1.5;;;;;;;10.91;99.31738;926.3738;;;;
2023/10/25 06:26:55;;;;;;;1.5;1.3;;;;;;;10.92;99.35352;926.3761;;;;
2023/10/25 06:29:25;;;;;;;2.5;1.7;;;;;;;11;99.02734;926.4039;;;;
2023/10/25 06:31:52;;;;;;;2.2;1.5;;;;;;;10.9;99.41602;926.4019;;;;
2023/10/25 06:34:16;;;;;;;1.4;1.2;;;;;;;10.73;100;926.3811;;;;
2023/10/25 06:36:43;;;;;;;2.7;1.4;;;;;;;10.64;100;926.4322;;;;
2023/10/25 06:39:08;;;;;;;1.4;1.3;;;;;;;10.66;100;926.463;;;;
2023/10/25 06:41:39;;;;;;;1.6;1.5;;;;;;;10.76;100;926.4445;;;;
2023/10/25 06:44:08;;;;;;;3.9;1.8;;;;;;;10.76;100;926.4739;;;;
2023/10/25 06:46:33;;;;;;;1.4;1.3;;;;;;;10.81;99.84277;926.4188;;;;
2023/10/25 06:49:06;;;;;;;1.2;1.1;;;;;;;10.75;99.79395;926.3897;;;;
2023/10/25 06:51:33;;;;;;;2.1;1.1;;;;;;;10.67;100;926.3794;;;;
2023/10/25 06:53:59;;;;;;;1.3;1.2;;;;;;;10.62;100;926.3376;;;;
2023/10/25 06:56:24;;;;;;;2.9;1.5;;;;;;;10.7;100;926.3035;;;;
2023/10/25 06:58:49;;;;;;;2;1.4;;;;;;;10.71;100;926.2046;;;;
2023/10/25 07:01:14;;;;;;;2.1;1.7;;;;;;;10.79;100;926.1806;;;;
2023/10/25 07:03:44;;;;;;;3.3;2.2;;;;;;;10.92;100;926.1379;;;;
2023/10/25 07:06:13;;;;;;;2.2;2;;;;;;;11.28;99.13672;926.1174;;;;
2023/10/25 07:08:38;;;;;;;1.3;1.2;;;;;;;11.36;96.86816;926.0974;;;;
2023/10/25 07:11:06;;;;;;;1.8;1.2;;;;;;;11.61;97.31348;925.9867;;;;
2023/10/25 07:13:31;;;;;;;1.1;1;;;;;;;11.52;94.88965;925.9678;;;;
2023/10/25 07:15:59;;;;;;;0.9;0.9;;;;;;;11.87;95.00293;926.0272;;;;
2023/10/25 07:18:27;;;;;;;0.9;0.9;;;;;;;12.02;92.74219;925.9966;;;;
2023/10/25 07:20:52;;;;;;;1.4;1;;;;;;;12.09;92.55078;925.9914;;;;
2023/10/25 07:23:20;;;;;;;0.8;0.8;;;;;;;12.14;91.58789;925.9771;;;;
2023/10/25 07:25:45;;;;;;;0.9;0.8;;;;;;;12.32;91.62695;925.9998;;;;
2023/10/25 07:28:11;;;;;;;0.9;0.9;;;;;;;12.2;89.5498;925.9696;;;;
2023/10/25 07:30:36;;;;;;;1.8;1.1;;;;;;;12.09;91.0498;925.9579;;;;
2023/10/25 07:33:07;;;;;;;1.1;1;;;;;;;12.21;90.63867;925.8898;;;;
2023/10/25 07:35:39;;;;;;;0.5;0.5;;;;;;;12.38;89.90625;925.8727;;;;
2023/10/25 07:38:04;;;;;;;0.5;0.5;;;;;;;12.43;88.73633;925.7539;;;;
2023/10/25 07:40:29;;;;;;;0.8;0.8;;;;;;;12.66;88.69043;925.8211;;;;
2023/10/25 07:43:00;;;;;;;1.2;0.6;;;;;;;12.28;88.17969;925.8225;;;;
2023/10/25 07:45:29;;;;;;;0.8;0.8;;;;;;;12.39;88.76172;925.7983;;;;
2023/10/25 07:47:55;;;;;;;1.6;0.7;;;;;;;12.53;87.16211;925.8303;;;;
2023/10/25 07:50:22;;;;;;;0.5;0.5;;;;;;;12.59;88.80371;925.8588;;;;
2023/10/25 07:52:48;;;;;;;0.9;0.8;;;;;;;13.03;87.06641;925.8649;;;;
2023/10/25 07:55:17;;;;;;;0.6;0.6;;;;;;;13.21;85.34668;925.8784;;;;
2023/10/25 07:57:43;;;;;;;0.6;0.6;;;;;;;13.29;84.39648;925.9016;;;;
2023/10/25 08:00:14;;;;;;;0.3;0.3;;;;;;;13.01;83.32031;925.837;;;;
2023/10/25 08:02:39;;;;;;;0.5;0.5;;;;;;;13.05;83.5332;925.8285;;;;
2023/10/25 08:05:07;;;;;;;0.4;0.4;;;;;;;12.96;82.65527;925.7804;;;;
2023/10/25 08:07:41;;;;;;;0.5;0.5;;;;;;;12.84;82.94238;925.6878;;;;
2023/10/25 08:10:05;;;;;;;0.5;0.5;;;;;;;13.02;83.73633;925.7195;;;;
2023/10/25 08:12:34;;;;;;;0.4;0.4;;;;;;;12.92;83.41699;925.6686;;;;
2023/10/25 08:14:59;;;;;;;0.3;0.3;;;;;;;12.89;83.40039;925.618;;;;
2023/10/25 08:17:27;;;;;;;0.5;0.5;;;;;;;12.97;83.3125;925.6707;;;;
2023/10/25 08:19:54;;;;;;;0.4;0.4;;;;;;;13.15;82.50879;925.5978;;;;
2023/10/25 08:22:19;;;;;;;0.3;0.3;;;;;;;13.43;78.86133;925.6103;;;;
2023/10/25 08:24:45;;;;;;;0.2;0.2;;;;;;;13.68;77.8252;925.5569;;;;
2023/10/25 08:27:11;;;;;;;0.4;0.2;;;;;;;13.7;78.7373;925.5636;;;;
2023/10/25 08:29:38;;;;;;;1.1;0.3;;;;;;;13.67;78.3877;925.4699;;;;
2023/10/25 08:32:03;;;;;;;0.4;0.3;;;;;;;13.89;79.32422;925.5396;;;;
2023/10/25 08:34:32;;;;;;;0.2;0.2;;;;;;;13.95;77.45801;925.49;;;;
2023/10/25 08:36:57;;;;;;;0.5;0.4;;;;;;;13.77;77.88574;925.4164;;;;
2023/10/25 08:39:26;;;;;;;0.3;0.2;;;;;;;13.77;76.10352;925.3717;;;;
2023/10/25 08:41:52;;;;;;;1.1;0.7;;;;;;;13.75;77.34277;925.2913;;;;
2023/10/25 08:44:16;;;;;;;0.6;0.6;;;;;;;13.79;77.1084;925.2679;;;;
2023/10/25 08:46:46;;;;;;;0.9;0.5;;;;;;;13.94;79.54102;925.2894;;;;
2023/10/25 08:49:11;;;;;;;0.2;0.2;;;;;;;13.77;78.19824;925.2476;;;;
2023/10/25 08:51:36;;;;;;;0.3;0.3;;;;;;;13.71;80.14258;925.2842;;;;
2023/10/25 08:54:01;;;;;;;0.4;0.4;;;;;;;13.73;78.41895;925.3024;;;;
2023/10/25 08:56:27;;;;;;;0.4;0.4;;;;;;;13.66;79.72949;925.2606;;;;
2023/10/25 08:58:54;;;;;;;0.3;0.3;;;;;;;13.69;77.35547;925.2911;;;;
2023/10/25 09:01:19;;;;;;;0.3;0.3;;;;;;;13.84;77.00293;925.3158;;;;
2023/10/25 09:03:49;;;;;;;0.3;0.3;;;;;;;13.89;76.75684;925.2548;;;;
2023/10/25 09:06:14;;;;;;;0.4;0.2;;;;;;;14.09;75.5957;925.2133;;;;
2023/10/25 09:08:43;;;;;;;0.4;0.3;;;;;;;14.3;74.90625;925.1986;;;;
2023/10/25 09:11:08;;;;;;;0.2;0.2;;;;;;;14.48;74.53418;925.1487;;;;
2023/10/25 09:13:32;;;;;;;0.2;0.2;;;;;;;14.7;74.81445;925.1599;;;;
2023/10/25 09:15:57;;;;;;;0.3;0.3;;;;;;;14.8;74.75098;925.1578;;;;
2023/10/25 09:18:22;;;;;;;0.3;0.3;;;;;;;14.91;74.13574;925.0606;;;;
2023/10/25 09:20:48;;;;;;;0.1;0.1;;;;;;;14.75;74.94922;925.0424;;;;
2023/10/25 09:23:16;;;;;;;0.3;0.3;;;;;;;14.81;73.51758;924.8781;;;;
2023/10/25 09:25:43;;;;;;;0.2;0.2;;;;;;;14.85;72.4873;924.9285;;;;
2023/10/25 09:28:07;;;;;;;0.5;0.3;;;;;;;14.62;73.48535;924.8833;;;;
2023/10/25 09:30:39;;;;;;;0.2;0.2;;;;;;;14.78;74.125;924.7843;;;;
2023/10/25 09:33:08;;;;;;;0.1;0.1;;;;;;;14.94;73.18262;924.6997;;;;
2023/10/25 09:35:35;;;;;;;0.2;0.2;;;;;;;14.92;70.46875;924.7003;;;;
2023/10/25 09:38:03;;;;;;;0.3;0.2;;;;;;;14.95;72.39941;924.6811;;;;
2023/10/25 09:40:30;;;;;;;0.2;0.2;;;;;;;14.93;71.42676;924.6819;;;;
2023/10/25 09:42:59;;;;;;;0.3;0.2;;;;;;;14.98;71.77148;924.5664;;;;
2023/10/25 09:45:24;;;;;;;0.1;0.1;;;;;;;15.21;73.02051;924.5942;;;;
2023/10/25 09:47:52;;;;;;;0.2;0.2;;;;;;;15.23;73.70313;924.5564;;;;
2023/10/25 09:50:14;;;;;;;0.1;0.1;;;;;;;14.99;69.83301;924.5181;;;;
2023/10/25 09:52:39;;;;;;;0.1;0.1;;;;;;;14.92;69.62695;924.5416;;;;
2023/10/25 09:55:08;;;;;;;0.1;0.1;;;;;;;15.03;70.25586;924.4955;;;;
2023/10/25 09:57:38;;;;;;;0.4;0.2;;;;;;;15.26;69.94727;924.5425;;;;
2023/10/25 10:00:05;;;;;;;0.1;0.1;;;;;;;15.27;69.03711;924.5239;;;;
2023/10/25 10:02:28;;;;;;;0.3;0.1;;;;;;;15.25;68.25977;924.4844;;;;
2023/10/25 10:04:57;;;;;;;0.3;0.3;;;;;;;15.43;69.66309;924.4989;;;;
2023/10/25 10:07:23;;;;;;;0.3;0.2;;;;;;;15.55;72.21094;924.5184;;;;
2023/10/25 10:09:48;;;;;;;0.2;0.2;;;;;;;15.68;70.26758;924.4558;;;;
2023/10/25 10:12:15;;;;;;;0.1;0.1;;;;;;;15.61;69.2627;924.3748;;;;
2023/10/25 10:14:40;;;;;;;0.2;0.1;;;;;;;15.71;68.23926;924.3769;;;;
2023/10/25 10:17:09;;;;;;;0.1;0.1;;;;;;;15.56;64.49609;924.3329;;;;
2023/10/25 10:19:34;;;;;;;0.6;0.4;;;;;;;15.45;67.30859;924.3484;;;;
2023/10/25 10:22:02;;;;;;;0.3;0.2;;;;;;;15.64;69.50977;924.3381;;;;
2023/10/25 10:24:28;;;;;;;1.7;1.1;;;;;;;15.85;66.31934;924.3137;;;;
2023/10/25 10:26:53;;;;;;;1.1;0.5;;;;;;;15.86;64.37891;924.2712;;;;
2023/10/25 10:29:22;;;;;;;0.3;0.2;;;;;;;16.02;64.54102;924.1423;;;;
2023/10/25 10:31:49;;;;;;;0.4;0.2;;;;;;;16.23;62.16602;924.0815;;;;
2023/10/25 10:34:17;;;;;;;0.3;0.2;;;;;;;16.2;61.63086;923.9931;;;;
2023/10/25 10:36:45;;;;;;;0.2;0.2;;;;;;;16.26;60.89746;923.9786;;;;
2023/10/25 10:39:15;;;;;;;0.3;0.3;;;;;;;16.27;58.53906;923.9203;;;;
2023/10/25 10:41:40;;;;;;;1.3;0.4;;;;;;;16.55;62.22363;923.8886;;;;
2023/10/25 10:44:11;;;;;;;1;0.2;;;;;;;16.82;61.58887;923.8621;;;;
2023/10/25 10:46:36;;;;;;;0.2;0.2;;;;;;;16.74;59.64551;923.8259;;;;
2023/10/25 10:49:01;;;;;;;0.2;0.1;;;;;;;16.85;60.38965;923.8108;;;;
2023/10/25 10:51:29;;;;;;;0.1;0.1;;;;;;;17.13;58.44629;923.7314;;;;
2023/10/25 10:53:54;;;;;;;0.2;0.2;;;;;;;17.39;60.08008;923.6859;;;;
2023/10/25 10:56:23;;;;;;;0.2;0.2;;;;;;;17.78;57.97559;923.6611;;;;
2023/10/25 10:58:48;;;;;;;0.2;0.2;;;;;;;18.1;54.69434;923.5735;;;;
2023/10/25 11:01:15;;;;;;;0.1;0.1;;;;;;;18.14;54.99023;923.4765;;;;
2023/10/25 11:03:40;;;;;;;0.1;0.1;;;;;;;18.16;55.19043;923.4756;;;;
2023/10/25 11:06:09;;;;;;;0.3;0.3;;;;;;;18.34;56.46777;923.3811;;;;
2023/10/25 11:08:35;;;;;;;0.1;0.1;;;;;;;18.53;54.36426;923.3608;;;;
2023/10/25 11:11:00;;;;;;;0.1;0.1;;;;;;;18.73;56.00586;923.3185;;;;
2023/10/25 11:13:28;;;;;;;0.1;0.1;;;;;;;18.61;54.50098;923.218;;;;
2023/10/25 11:15:51;;;;;;;0.7;0.3;;;;;;;19.01;55.72754;923.1793;;;;
2023/10/25 11:18:16;;;;;;;0.2;0.2;;;;;;;19.53;53.625;923.1666;;;;
2023/10/25 11:20:45;;;;;;;1.6;0.2;;;;;;;19.68;53.72461;923.0991;;;;
2023/10/25 11:23:14;;;;;;;0.1;0.1;;;;;;;19.97;53.14063;923.0444;;;;
2023/10/25 11:25:39;;;;;;;0.3;0.2;;;;;;;20.03;51.27051;923.0187;;;;
2023/10/25 11:28:05;;;;;;;0.8;0.4;;;;;;;20.67;48.72656;922.9826;;;;
2023/10/25 11:30:34;;;;;;;0.2;0.2;;;;;;;20.62;47.86816;922.9233;;;;
2023/10/25 11:32:56;;;;;;;0.2;0.2;;;;;;;21.38;44.84863;922.9008;;;;
2023/10/25 11:35:25;;;;;;;0.3;0.3;;;;;;;23.11;44.76563;922.765;;;;
2023/10/25 11:37:49;;;;;;;0.2;0.2;;;;;;;24.33;40.05762;922.7316;;;;
2023/10/25 11:40:22;;;;;;;0.1;0.1;;;;;;;25.62;37.92871;922.7329;;;;
2023/10/25 11:42:48;;;;;;;0.3;0.3;;;;;;;27.16;34.72852;922.6501;;;;
2023/10/25 11:45:17;;;;;;;0.3;0.3;;;;;;;25.99;33.21777;922.5516;;;;
2023/10/25 11:47:40;;;;;;;0.3;0.3;;;;;;;26.27;34.58789;922.5262;;;;
2023/10/25 11:50:11;;;;;;;0.6;0.1;;;;;;;28.48;31.84473;922.4517;;;;
2023/10/25 11:52:39;;;;;;;0.2;0.2;;;;;;;30.32;29.64746;922.4991;;;;
2023/10/25 11:55:04;;;;;;;0.6;0.2;;;;;;;32.96;27.0459;922.5133;;;;
2023/10/25 11:57:38;;;;;;;3.4;0.5;;;;;;;32.14;27.00879;922.4132;;;;
2023/10/25 12:00:02;;;;;;;0.3;0.3;;;;;;;30.33;28.53711;922.3688;;;;
2023/10/25 12:02:28;;;;;;;0.5;0.2;;;;;;;30.72;28.80078;922.2006;;;;
2023/10/25 12:04:53;;;;;;;0.1;0.1;;;;;;;26.93;32.6123;922.1906;;;;
2023/10/25 12:07:21;;;;;;;0.2;0.2;;;;;;;25.59;36.68652;922.1277;;;;
2023/10/25 12:09:46;;;;;;;0.3;0.3;;;;;;;24.58;38.22949;922.0971;;;;
2023/10/25 12:12:17;;;;;;;0.3;0.2;;;;;;;23.74;39.00488;922.0804;;;;
2023/10/25 12:14:46;;;;;;;0.2;0.2;;;;;;;24.97;39.1123;922.0908;;;;
2023/10/25 12:17:11;;;;;;;0.2;0.2;;;;;;;25.29;37.2627;922.0651;;;;
2023/10/25 12:19:41;;;;;;;1.4;0.1;;;;;;;24.46;39.90527;922.0341;;;;
2023/10/25 12:22:09;;;;;;;0.3;0.3;;;;;;;25.68;38.57129;922.0005;;;;
2023/10/25 12:24:33;;;;;;;0.2;0.2;;;;;;;29.01;31.85742;921.9178;;;;
2023/10/25 12:27:00;;;;;;;0.1;0.1;;;;;;;32.41;26.30566;921.8301;;;;
2023/10/25 12:29:27;;;;;;;0.2;0.2;;;;;;;34.99;25.19922;921.7726;;;;
2023/10/25 12:31:53;;;;;;;1.2;0.2;;;;;;;35.11;23.6377;921.7173;;;;
2023/10/25 12:34:18;;;;;;;0.1;0.1;;;;;;;37.18;20.96875;921.6666;;;;
2023/10/25 12:36:44;;;;;;;0.2;0.2;;;;;;;35.57;21.35449;921.5595;;;;
2023/10/25 12:39:10;;;;;;;0.2;0.2;;;;;;;33.26;24.2998;921.4387;;;;
2023/10/25 12:41:38;;;;;;;0.2;0.2;;;;;;;34.8;22.52441;921.3245;;;;
2023/10/25 12:44:04;;;;;;;0.8;0.1;;;;;;;33.44;22.91406;921.2449;;;;
2023/10/25 12:46:30;;;;;;;0.2;0.2;;;;;;;32.19;24.1582;921.1806;;;;
2023/10/25 12:48:55;;;;;;;0.2;0.2;;;;;;;32.67;23.12695;921.1816;;;;
2023/10/25 12:51:23;;;;;;;1.5;0.2;;;;;;;32.64;25.3584;921.1064;;;;
2023/10/25 12:53:49;;;;;;;0.3;0.3;;;;;;;36.61;21.28223;921.0514;;;;
2023/10/25 12:56:15;;;;;;;0.2;0.2;;;;;;;36.61;20.93066;921.0133;;;;
2023/10/25 12:58:40;;;;;;;0.3;0.1;;;;;;;37.84;20.50195;920.9542;;;;
2023/10/25 13:01:06;;;;;;;0.1;0.1;;;;;;;37.57;18.7666;920.8111;;;;
2023/10/25 13:03:31;;;;;;;1.2;0.3;;;;;;;37.85;19.09375;920.8264;;;;
2023/10/25 13:05:58;;;;;;;0.2;0.2;;;;;;;39.34;18.30371;920.7589;;;;
2023/10/25 13:08:24;;;;;;;0.2;0.2;;;;;;;37.75;19.96387;920.7463;;;;
2023/10/25 13:10:48;;;;;;;0.3;0.3;;;;;;;37.43;19.31934;920.6895;;;;
2023/10/25 13:13:13;;;;;;;0.2;0.2;;;;;;;39.54;18.9082;920.6039;;;;
2023/10/25 13:15:40;;;;;;;0.1;0.1;;;;;;;35.78;20.91699;920.5925;;;;
2023/10/25 13:18:06;;;;;;;0.2;0.2;;;;;;;35.14;22.19141;920.6022;;;;
2023/10/25 13:20:32;;;;;;;0.2;0.1;;;;;;;37.34;20.50391;920.6298;;;;
2023/10/25 13:23:00;;;;;;;0.5;0.3;;;;;;;38.25;19.59668;920.6197;;;;
2023/10/25 13:25:25;;;;;;;0.2;0.2;;;;;;;36.58;21.54688;920.5519;;;;
2023/10/25 13:27:50;;;;;;;0.8;0.2;;;;;;;34.78;23.34375;920.4313;;;;
2023/10/25 13:30:16;;;;;;;1;0.4;;;;;;;33.94;23.43262;920.3732;;;;
2023/10/25 13:32:42;;;;;;;0.1;0.1;;;;;;;32.6;24.15527;920.3881;;;;
2023/10/25 13:35:08;;;;;;;0.1;0.1;;;;;;;31.49;26.15625;920.295;;;;
2023/10/25 13:37:33;;;;;;;0.2;0.2;;;;;;;30.92;27.77246;920.2161;;;;
2023/10/25 13:40:02;;;;;;;0.2;0.2;;;;;;;31.84;25.95996;920.2319;;;;
2023/10/25 13:42:26;;;;;;;0.2;0.2;;;;;;;31.56;27.0459;920.2434;;;;
2023/10/25 13:44:55;;;;;;;0.2;0.2;;;;;;;31.99;27.40723;920.2453;;;;
2023/10/25 13:47:21;;;;;;;0.2;0.2;;;;;;;32.25;26.8584;920.2351;;;;
2023/10/25 13:49:48;;;;;;;0.2;0.2;;;;;;;30.41;28.57813;920.1238;;;;
2023/10/25 13:52:13;;;;;;;0.1;0.1;;;;;;;33.6;26.26563;920.0491;;;;
2023/10/25 13:54:44;;;;;;;0.3;0.3;;;;;;;32.96;25.87988;920.1584;;;;
2023/10/25 13:57:08;;;;;;;0.4;0.2;;;;;;;33.67;25.57227;920.1083;;;;
2023/10/25 13:59:36;;;;;;;0.9;0.2;;;;;;;31.09;27.45996;920.0678;;;;
2023/10/25 14:02:03;;;;;;;0.1;0.1;;;;;;;29.64;28.625;919.9433;;;;
2023/10/25 14:04:29;;;;;;;0.1;0.1;;;;;;;30.45;28.62793;920.0018;;;;
2023/10/25 14:06:53;;;;;;;0.2;0.2;;;;;;;30.13;29.71777;919.9921;;;;
2023/10/25 14:09:21;;;;;;;0.1;0.1;;;;;;;29.88;30.17871;919.9861;;;;
2023/10/25 14:11:48;;;;;;;0.2;0.2;;;;;;;30.23;29.93848;919.957;;;;
2023/10/25 14:14:16;;;;;;;0.2;0.2;;;;;;;31.22;28.94043;919.8882;;;;
2023/10/25 14:16:47;;;;;;;0.3;0.3;;;;;;;29.17;31.04785;919.8844;;;;
2023/10/25 14:19:12;;;;;;;0.3;0.3;;;;;;;26.21;36.0498;919.8145;;;;
2023/10/25 14:21:43;;;;;;;0.2;0.2;;;;;;;23.62;40.54785;919.9144;;;;
2023/10/25 14:24:07;;;;;;;1.3;0.3;;;;;;;22.69;43.74902;919.8678;;;;
2023/10/25 14:26:40;;;;;;;3.3;0.4;;;;;;;22.01;46.33105;919.938;;;;
2023/10/25 14:29:08;;;;;;;0.6;0.4;;;;;;;21.49;48.54785;919.9622;;;;
2023/10/25 14:31:34;;;;;;;0.7;0.5;;;;;;;21.46;49.98438;919.9771;;;;
2023/10/25 14:34:03;;;;;;;1.3;0.4;;;;;;;20.68;51.04199;920.002;;;;
2023/10/25 14:36:35;;;;;;;1.1;0.5;;;;;;;20.08;53.72656;920.0356;;;;
2023/10/25 14:39:04;;;;;;;2.4;1;;;;;;;19.6;56.06934;920.0276;;;;
2023/10/25 14:41:31;;;;;;;0.9;0.7;;;;;;;19.65;56.30957;919.9666;;;;
2023/10/25 14:43:59;;;;;;;1.2;0.8;;;;;;;19.84;56.97461;919.9064;;;;
2023/10/25 14:46:24;;;;;;;1.3;0.7;;;;;;;19.6;56.99219;919.9977;;;;
2023/10/25 14:48:55;;;;;;;1;0.9;;;;;;;19.46;57.57813;920.0876;;;;
2023/10/25 14:51:17;;;;;;;1;0.9;;;;;;;19.71;57.2373;920.1464;;;;
2023/10/25 14:53:45;;;;;;;1;0.7;;;;;;;19.73;57.76465;920.2183;;;;
2023/10/25 14:56:14;;;;;;;0.9;0.7;;;;;;;19.91;57.36816;920.1501;;;;
2023/10/25 14:58:40;;;;;;;0.8;0.7;;;;;;;20.01;57.52148;920.1537;;;;
2023/10/25 15:01:07;;;;;;;0.8;0.8;;;;;;;19.45;59.56934;920.1286;;;;
2023/10/25 15:03:35;;;;;;;0.9;0.7;;;;;;;18.93;60.93164;920.1033;;;;
2023/10/25 15:06:00;;;;;;;0.6;0.6;;;;;;;19.28;60.75879;920.0597;;;;
2023/10/25 15:08:30;;;;;;;0.8;0.7;;;;;;;19.27;59.24316;920.045;;;;
2023/10/25 15:10:56;;;;;;;0.6;0.6;;;;;;;19.17;60.94043;920.0914;;;;
2023/10/25 15:13:21;;;;;;;6.6;5.8;;;;;;;18.27;65.64063;920.0492;;;;
2023/10/25 15:15:46;;;;;;;7.8;6.5;;;;;;;18.07;66.5752;919.9777;;;;
2023/10/25 15:18:17;;;;;;;4.8;3.7;;;;;;;18.16;66.13574;920.0656;;;;
2023/10/25 15:20:42;;;;;;;3.4;2.9;;;;;;;17.96;66.42969;920.1267;;;;
2023/10/25 15:23:08;;;;;;;3.2;2.1;;;;;;;17.68;66.96777;920.2453;;;;
2023/10/25 15:25:34;;;;;;;1.5;1.4;;;;;;;17.65;67.2998;920.2888;;;;
2023/10/25 15:28:03;;;;;;;1.1;0.8;;;;;;;17.56;65.25684;920.3795;;;;
2023/10/25 15:30:28;;;;;;;0.5;0.5;;;;;;;17.55;65.20801;920.4653;;;;
2023/10/25 15:32:55;;;;;;;0.7;0.7;;;;;;;17.64;64.12988;920.4858;;;;
2023/10/25 15:35:20;;;;;;;0.7;0.4;;;;;;;17.69;63.99902;920.4095;;;;
2023/10/25 15:37:45;;;;;;;1.1;0.3;;;;;;;17.61;65.59961;920.4973;;;;